M I D A S
Marine Information and Data Acquisition System
Tripno 1243 of the Zeeleeuw from 2007-03-30 07:34:46 to 2007-03-30 14:13:55
Back to CruiseResearch ActivitiesStationsMapUnderway DataData graphs

EquipmentUnitsComment
TimeDGPSUTC
LatitudeDGPSDM.mWGS84
LongitudeDGPSDM.mWGS84
TemperatureSBE03/SBE38deg celciusITS90
ConductivitySBE21S/mITS90
SalinitySBE21 Practical Salinity Units
ChlorophylAChelsea fluorimeterg/lCalibrated in Aceton
Missing or incorrect values are displayed as -999
Sea surface data collected by the RV Zeeleeuw from 2007-03-30 07:35:03 to 2007-03-30 14:25:15
Time Latitude Longitude Temperature Conductivity Salinity ChlorophylA
2007-03-30 07:36:11 51°13.616 2°56.037 9.0517 2.659126 22.772937 -2.871232
2007-03-30 07:37:11 51°13.643 2°55.946 8.882 2.768613 24.153998 -2.871232
2007-03-30 07:38:11 51°13.674 2°55.877 8.8561 2.808733 24.62468 -2.871232
2007-03-30 07:39:10 51°13.683 2°55.86 8.8283 2.763548 24.218505 -2.871232
2007-03-30 07:40:11 51°13.705 2°55.81 8.7706 2.775232 24.35511 -2.871232
2007-03-30 07:41:11 51°13.732 2°55.734 8.7562 2.8925 25.532252 -2.871232
2007-03-30 07:42:10 51°13.744 2°55.7 8.7724 2.906773 25.686862 -2.871232
2007-03-30 07:43:11 51°13.743 2°55.683 8.77 2.75352 24.184673 -2.871232
2007-03-30 07:44:10 51°13.748 2°55.683 8.7556 2.805529 24.705665 -2.871232
2007-03-30 07:45:09 51°13.785 2°55.679 8.767 2.786297 24.522549 -2.871232
2007-03-30 07:46:09 51°13.864 2°55.614 8.8253 2.670504 23.382127 -2.871232
2007-03-30 07:47:07 51°13.986 2°55.519 8.7644 2.636598 23.049326 -2.871232
2007-03-30 07:48:08 51°14.134 2°55.409 8.7557 2.77575 24.421703 -2.871232
2007-03-30 07:49:08 51°14.264 2°55.256 8.7403 2.755485 24.228788 -2.871232
2007-03-30 07:50:08 51°14.378 2°55.029 8.7131 2.676913 23.472531 -2.871232
2007-03-30 07:51:08 51°14.474 2°54.718 8.6228 2.88009 25.497024 -2.871232
2007-03-30 07:52:08 51°14.586 2°54.407 8.5444 3.150202 28.196166 -2.871232
2007-03-30 07:53:08 51°14.772 2°54.215 8.4865 3.210951 28.870758 -2.871232
2007-03-30 07:54:08 51°14.969 2°54.053 8.4876 3.234032 29.134885 -2.871232
2007-03-30 07:55:08 51°15.168 2°53.892 8.4603 3.24935 29.299477 -2.871232
2007-03-30 07:56:07 51°15.366 2°53.732 8.4549 3.250489 29.324246 -2.871232
2007-03-30 07:57:08 51°15.568 2°53.564 8.4266 3.255147 29.383412 -2.871232
2007-03-30 07:58:08 51°15.769 2°53.406 8.4066 3.275124 29.613416 -2.871232
2007-03-30 07:59:08 51°15.968 2°53.246 8.4415 3.285579 29.722117 -2.871232
2007-03-30 08:00:08 51°16.167 2°53.092 8.4616 3.302969 29.865818 -2.871232
2007-03-30 08:01:08 51°16.366 2°52.94 8.4627 3.314046 29.966294 -2.871232
2007-03-30 08:02:08 51°16.566 2°52.792 8.4524 3.310112 29.930115 -2.871232
2007-03-30 08:03:08 51°16.766 2°52.653 8.4435 3.296344 29.795463 -2.871232
2007-03-30 08:04:08 51°16.966 2°52.513 8.4403 3.298829 29.829972 -2.871232
2007-03-30 08:05:08 51°17.164 2°52.372 8.4405 3.298104 29.823518 -2.871232
2007-03-30 08:06:08 51°17.364 2°52.229 8.4418 3.29976 29.840911 -2.871232
2007-03-30 08:07:08 51°17.562 2°52.087 8.4423 3.296344 29.805091 -2.871232
2007-03-30 08:08:08 51°17.752 2°51.916 8.4448 3.299553 29.83964 -2.871232
2007-03-30 08:09:08 51°17.935 2°51.725 8.4145 3.306489 29.912346 -2.871232
2007-03-30 08:10:08 51°18.103 2°51.488 8.3993 3.310837 29.979337 -2.871232
2007-03-30 08:11:08 51°18.272 2°51.249 8.3748 3.315289 30.041809 -2.871232
2007-03-30 08:12:08 51°18.441 2°51.008 8.3629 3.32502 30.156602 -2.871232
2007-03-30 08:13:08 51°18.611 2°50.769 8.3599 3.316635 30.082098 -2.871232
2007-03-30 08:14:08 51°18.76 2°50.569 8.3669 3.312183 30.033319 -2.871232
2007-03-30 08:15:08 51°18.823 2°50.36 8.369 3.307836 29.989649 -2.871232
2007-03-30 08:16:08 51°18.852 2°50.113 8.3844 3.303281 29.940676 -2.871232
2007-03-30 08:17:08 51°18.878 2°49.908 8.396 3.305662 29.949223 -2.871232
2007-03-30 08:18:08 51°18.853 2°49.797 8.3981 3.304212 29.924991 -2.871232
2007-03-30 08:19:08 51°18.842 2°49.777 8.3994 3.30504 29.932492 -2.871232
2007-03-30 08:20:08 51°18.828 2°49.766 8.3982 3.308974 29.967918 -2.871232
2007-03-30 08:21:08 51°18.816 2°49.747 8.4139 3.313839 30.01188 -2.871232
2007-03-30 08:22:08 51°18.806 2°49.724 8.4141 3.306903 29.933427 -2.871232
2007-03-30 08:23:08 51°18.796 2°49.699 8.4469 3.31622 30.017156 -2.871232
2007-03-30 08:24:08 51°18.79 2°49.675 8.4386 3.320361 30.03926 -2.871232
2007-03-30 08:25:08 51°18.783 2°49.651 8.4263 3.314978 29.995002 -2.871232
2007-03-30 08:26:08 51°18.78 2°49.627 8.4504 3.313218 29.979785 -2.871232
2007-03-30 08:27:08 51°18.811 2°49.631 8.419 3.314667 29.993505 -2.871232
2007-03-30 08:28:08 51°18.883 2°49.768 8.4247 3.31063 29.964337 -2.871232
2007-03-30 08:29:08 51°19.007 2°50.004 8.3964 3.307939 29.939773 -2.871232
2007-03-30 08:30:08 51°19.143 2°50.261 8.3837 3.302556 29.909989 -2.871232
2007-03-30 08:31:08 51°19.281 2°50.519 8.3683 3.322225 30.115511 -2.871232
2007-03-30 08:32:08 51°19.409 2°50.757 8.3293 3.325848 30.172254 -2.871232
2007-03-30 08:33:08 51°19.475 2°50.891 8.3306 3.32088 30.147544 -2.871232
2007-03-30 08:34:08 51°19.506 2°50.971 8.328 3.325849 30.196713 -2.871232
2007-03-30 08:35:08 51°19.515 2°51.041 8.3213 3.322122 30.164929 -2.871232
2007-03-30 08:36:08 51°19.529 2°51.127 8.3215 3.320259 30.148628 -2.871232
2007-03-30 08:37:08 51°19.556 2°51.224 8.322 3.317049 30.119602 -2.871232
2007-03-30 08:38:08 51°19.587 2°51.305 8.322 3.317671 30.126665 -2.871232
2007-03-30 08:39:08 51°19.623 2°51.373 8.3184 3.317256 30.121685 -2.871232
2007-03-30 08:40:08 51°19.657 2°51.441 8.3212 3.315704 30.107692 -2.871232
2007-03-30 08:41:08 51°19.688 2°51.513 8.3242 3.314772 30.096692 -2.871232
2007-03-30 08:42:08 51°19.719 2°51.583 8.3238 3.313116 30.075967 -2.871232
2007-03-30 08:43:08 51°19.759 2°51.643 8.3055 3.31177 30.068935 -2.871232
2007-03-30 08:44:08 51°19.801 2°51.698 8.2728 3.310424 30.074911 -2.871232
2007-03-30 08:45:08 51°19.833 2°51.766 8.2814 3.313116 30.115036 -2.871232
2007-03-30 08:46:08 51°19.865 2°51.839 8.2569 3.315083 30.140553 -2.871232
2007-03-30 08:47:08 51°19.9 2°51.908 8.2528 3.315601 30.170268 -2.871232
2007-03-30 08:48:08 51°19.938 2°51.973 8.1936 3.318086 30.204318 -2.871232
2007-03-30 08:49:08 51°19.973 2°52.043 8.1888 3.316533 30.231262 -2.871232
2007-03-30 08:50:08 51°20.004 2°52.118 8.2082 3.31819 30.242245 -2.871232
2007-03-30 08:51:08 51°20.032 2°52.195 8.2249 3.320363 30.246963 -2.871232
2007-03-30 08:52:08 51°20.063 2°52.27 8.2261 3.322848 30.263833 -2.871232
2007-03-30 08:53:08 51°20.095 2°52.344 8.2545 3.32233 30.251228 -2.871232
2007-03-30 08:54:08 51°20.129 2°52.417 8.2609 3.326678 30.276223 -2.871232
2007-03-30 08:55:08 51°20.163 2°52.49 8.2541 3.328334 30.287185 -2.871232
2007-03-30 08:56:08 51°20.198 2°52.562 8.2435 3.327402 30.286813 -2.871232
2007-03-30 08:57:08 51°20.232 2°52.634 8.2624 3.33175 30.329849 -2.871232
2007-03-30 08:58:08 51°20.262 2°52.71 8.2665 3.338376 30.38517 -2.871232
2007-03-30 08:59:08 51°20.297 2°52.78 8.2792 3.342724 30.423265 -2.871232
2007-03-30 09:00:08 51°20.332 2°52.853 8.2929 3.348935 30.474378 -2.871232
2007-03-30 09:01:08 51°20.356 2°52.937 8.2996 3.352869 30.504977 -2.871232
2007-03-30 09:02:08 51°20.379 2°53.023 8.3088 3.35877 30.557054 -2.871232
2007-03-30 09:03:08 51°20.41 2°53.103 8.3154 3.364257 30.604945 -2.871232
2007-03-30 09:04:08 51°20.444 2°53.179 8.3117 3.366742 30.626691 -2.871232
2007-03-30 09:05:08 51°20.479 2°53.255 8.3127 3.366742 30.62752 -2.871232
2007-03-30 09:06:08 51°20.518 2°53.324 8.3096 3.365914 30.619167 -2.871232
2007-03-30 09:07:08 51°20.56 2°53.39 8.306 3.36198 30.582804 -2.871232
2007-03-30 09:08:08 51°20.596 2°53.463 8.3064 3.361152 30.576933 -2.871232
2007-03-30 09:09:08 51°20.628 2°53.542 8.3079 3.36229 30.586763 -2.871232
2007-03-30 09:10:08 51°20.661 2°53.624 8.3069 3.361773 30.58237 -2.871232
2007-03-30 09:11:08 51°20.691 2°53.711 8.3066 3.36022 30.567537 -2.871232
2007-03-30 09:12:08 51°20.712 2°53.804 8.3079 3.360116 30.565666 -2.871232
2007-03-30 09:13:08 51°20.727 2°53.898 8.3069 3.359702 30.56149 -2.871232
2007-03-30 09:14:08 51°20.717 2°53.991 8.3055 3.358874 30.554792 -2.871232
2007-03-30 09:15:08 51°20.679 2°54.063 8.3043 3.356596 30.533478 -2.871232
2007-03-30 09:16:08 51°20.636 2°54.103 8.3024 3.354526 30.515077 -2.871232
2007-03-30 09:17:08 51°20.603 2°54.126 8.3043 3.354112 30.511727 -2.871232
2007-03-30 09:18:08 51°20.577 2°54.144 8.3016 3.35349 30.505464 -2.871232
2007-03-30 09:19:08 51°20.538 2°54.173 8.2997 3.353594 30.508158 -2.871232
2007-03-30 09:20:08 51°20.507 2°54.201 8.2961 3.351938 30.493106 -2.871232
2007-03-30 09:21:08 51°20.486 2°54.225 8.293 3.351627 30.494924 -2.871232
2007-03-30 09:22:08 51°20.473 2°54.242 8.2921 3.351627 30.496575 -2.871232
2007-03-30 09:23:08 51°20.465 2°54.256 8.2921 3.351731 30.49927 -2.871232
2007-03-30 09:24:08 51°20.436 2°54.305 8.2944 3.351834 30.500314 -2.871232
2007-03-30 09:25:08 51°20.405 2°54.371 8.2966 3.352662 30.505365 -2.871232
2007-03-30 09:26:08 51°20.386 2°54.42 8.2968 3.353801 30.514374 -2.871232
2007-03-30 09:27:08 51°20.373 2°54.456 8.2961 3.354836 30.525641 -2.871232
2007-03-30 09:28:08 51°20.362 2°54.488 8.2991 3.354733 30.52377 -2.871232
2007-03-30 09:29:08 51°20.315 2°54.557 8.3012 3.355561 30.530471 -2.871232
2007-03-30 09:30:09 51°20.202 2°54.545 8.3127 3.357528 30.546178 -2.871232
2007-03-30 09:31:09 51°20.09 2°54.404 8.3203 3.362704 30.58763 -2.871232
2007-03-30 09:32:07 51°19.975 2°54.264 8.3221 3.365293 30.608764 -2.871232
2007-03-30 09:33:09 51°19.838 2°54.084 8.3148 3.366017 30.613588 -2.871232
2007-03-30 09:34:09 51°19.692 2°53.892 8.2979 3.358874 30.553139 -2.871232
2007-03-30 09:35:08 51°19.544 2°53.697 8.2881 3.352559 30.50267 -2.871232
2007-03-30 09:36:08 51°19.386 2°53.485 8.2873 3.350902 30.490091 -2.871232
2007-03-30 09:37:09 51°19.226 2°53.269 8.289 3.350902 30.490916 -2.871232
2007-03-30 09:38:09 51°19.068 2°53.055 8.2787 3.348728 30.468166 -2.871232
2007-03-30 09:39:09 51°18.909 2°52.843 8.2915 3.34055 30.395577 -2.871232
2007-03-30 09:40:09 51°18.716 2°52.754 8.3145 3.334338 30.315716 -2.871232
2007-03-30 09:41:09 51°18.548 2°52.566 8.3309 3.348003 30.427922 -2.871232
2007-03-30 09:42:07 51°18.407 2°52.337 8.3428 3.349867 30.442579 -2.871232
2007-03-30 09:43:08 51°18.259 2°52.101 8.3515 3.347278 30.403364 -2.871232
2007-03-30 09:44:08 51°18.111 2°51.871 8.3514 3.345311 30.37946 -2.871232
2007-03-30 09:45:08 51°17.962 2°51.64 8.3642 3.343655 30.359509 -2.871232
2007-03-30 09:46:08 51°17.812 2°51.414 8.3757 3.344276 30.354283 -2.871232
2007-03-30 09:47:08 51°17.662 2°51.188 8.3854 3.350073 30.4044 -2.871232
2007-03-30 09:48:08 51°17.514 2°50.959 8.3891 3.346035 30.354778 -2.871232
2007-03-30 09:49:08 51°17.366 2°50.733 8.392 3.350177 30.394777 -2.871232
2007-03-30 09:50:08 51°17.219 2°50.516 8.3941 3.3538 30.427111 -2.871232
2007-03-30 09:51:08 51°17.072 2°50.294 8.3992 3.352868 30.414459 -2.871232
2007-03-30 09:52:08 51°16.919 2°50.081 8.408 3.353593 30.417644 -2.871232
2007-03-30 09:53:08 51°16.767 2°49.871 8.4344 3.355146 30.42341 -2.871232
2007-03-30 09:54:08 51°16.614 2°49.663 8.4588 3.360011 30.448514 -2.871232
2007-03-30 09:55:08 51°16.462 2°49.456 8.4897 3.374195 30.562216 -2.871232
2007-03-30 09:56:07 51°16.312 2°49.256 8.517 3.385894 30.659099 -2.871232
2007-03-30 09:57:08 51°16.158 2°49.047 8.5295 3.398525 30.762788 -2.871232
2007-03-30 09:58:08 51°16.007 2°48.841 8.5485 3.403185 30.801285 -2.871232
2007-03-30 09:59:07 51°15.857 2°48.64 8.5596 3.415299 30.904645 -2.871232
2007-03-30 10:00:08 51°15.704 2°48.43 8.5719 3.426689 31.008167 -2.871232
2007-03-30 10:01:08 51°15.554 2°48.225 8.5854 3.437871 31.107094 -2.871232
2007-03-30 10:02:08 51°15.405 2°48.018 8.5068 3.406808 30.815307 -2.871232
2007-03-30 10:03:08 51°15.257 2°47.814 8.5004 3.363634 30.428356 -2.871232
2007-03-30 10:04:08 51°15.108 2°47.612 8.5185 3.362909 30.419453 -2.871232
2007-03-30 10:05:08 51°14.96 2°47.407 8.5325 3.367361 30.447723 -2.871232
2007-03-30 10:06:08 51°14.813 2°47.202 8.5408 3.373262 30.497867 -2.871232
2007-03-30 10:07:08 51°14.665 2°46.997 8.5471 3.3773 30.52768 -2.871232
2007-03-30 10:08:08 51°14.517 2°46.793 8.5499 3.375436 30.50491 -2.871232
2007-03-30 10:09:08 51°14.37 2°46.59 8.5489 3.370053 30.452612 -2.871232
2007-03-30 10:10:08 51°14.222 2°46.387 8.5285 3.365497 30.411067 -2.871232
2007-03-30 10:11:08 51°14.077 2°46.183 8.5401 3.353798 30.305309 -2.871232
2007-03-30 10:12:08 51°13.931 2°45.978 8.5493 3.355248 30.308427 -2.871232
2007-03-30 10:13:08 51°13.786 2°45.771 8.5506 3.356697 30.318868 -2.871232
2007-03-30 10:14:08 51°13.64 2°45.566 8.5706 3.36032 30.348628 -2.871232
2007-03-30 10:15:08 51°13.494 2°45.362 8.5765 3.372848 30.459351 -2.871232
2007-03-30 10:16:08 51°13.349 2°45.16 8.5843 3.380716 30.529129 -2.871232
2007-03-30 10:17:08 51°13.211 2°44.946 8.5765 3.378542 30.508999 -2.871232
2007-03-30 10:18:08 51°13.077 2°44.725 8.5825 3.381752 30.543592 -2.871232
2007-03-30 10:19:08 51°12.94 2°44.506 8.6029 3.392002 30.632285 -2.871232
2007-03-30 10:20:08 51°12.781 2°44.332 8.5871 3.396661 30.670721 -2.871232
2007-03-30 10:21:08 51°12.616 2°44.17 8.5787 3.39107 30.629525 -2.871232
2007-03-30 10:22:08 51°12.449 2°44.006 8.5751 3.395729 30.684424 -2.871232
2007-03-30 10:23:08 51°12.292 2°43.819 8.5655 3.389103 30.622144 -2.871232
2007-03-30 10:24:08 51°12.168 2°43.577 8.5689 3.387757 30.60866 -2.871232
2007-03-30 10:25:08 51°12.073 2°43.299 8.5725 3.390242 30.631089 -2.871232
2007-03-30 10:26:08 51°11.981 2°43.02 8.5774 3.392726 30.651873 -2.871232
2007-03-30 10:27:08 51°11.882 2°42.747 8.5786 3.39138 30.635923 -2.871232
2007-03-30 10:28:08 51°11.774 2°42.483 8.5705 3.387653 30.601875 -2.871232
2007-03-30 10:29:08 51°11.663 2°42.221 8.5676 3.386618 30.593967 -2.871232
2007-03-30 10:30:08 51°11.553 2°41.959 8.5765 3.38786 30.612983 -2.871232
2007-03-30 10:31:08 51°11.444 2°41.695 8.5794 3.378438 30.507144 -2.871232
2007-03-30 10:32:08 51°11.333 2°41.435 8.5602 3.36912 30.415512 -2.871232
2007-03-30 10:33:08 51°11.224 2°41.173 8.561 3.369121 30.426122 -2.871232
2007-03-30 10:34:08 51°11.113 2°40.913 8.562 3.371709 30.45367 -2.871232
2007-03-30 10:35:08 51°11.003 2°40.654 8.552 3.37585 30.495958 -2.871232
2007-03-30 10:36:08 51°10.893 2°40.394 8.5453 3.379578 30.538206 -2.871232
2007-03-30 10:37:08 51°10.782 2°40.135 8.5358 3.38403 30.594309 -2.871232
2007-03-30 10:38:08 51°10.671 2°39.876 8.5318 3.388585 30.64574 -2.871232
2007-03-30 10:39:08 51°10.559 2°39.616 8.5193 3.392727 30.693045 -2.871232
2007-03-30 10:40:08 51°10.432 2°39.371 8.5376 3.396869 30.737072 -2.871232
2007-03-30 10:41:08 51°10.317 2°39.165 8.5391 3.402977 30.781838 -2.871232
2007-03-30 10:42:08 51°10.21 2°38.976 8.5582 3.410329 30.854767 -2.871232
2007-03-30 10:43:08 51°10.103 2°38.789 8.5523 3.412192 30.863525 -2.871232
2007-03-30 10:44:08 51°10.011 2°38.615 8.5397 3.412607 30.870995 -2.871232
2007-03-30 10:45:08 51°9.93 2°38.436 8.5391 3.410329 30.858911 -2.871232
2007-03-30 10:46:08 51°9.847 2°38.259 8.5397 3.413642 30.894655 -2.871232
2007-03-30 10:47:08 51°9.777 2°38.105 8.5464 3.41737 30.930415 -2.871232
2007-03-30 10:48:08 51°9.728 2°38.008 8.552 3.423582 30.986137 -2.871232
2007-03-30 10:49:08 51°9.689 2°37.931 8.5606 3.427206 31.016695 -2.871232
2007-03-30 10:50:08 51°9.652 2°37.861 8.5759 3.432176 31.058262 -2.871232
2007-03-30 10:51:08 51°9.618 2°37.793 8.5979 3.439735 31.117456 -2.871232
2007-03-30 10:52:08 51°9.583 2°37.728 8.6175 3.450194 31.201527 -2.871232
2007-03-30 10:53:08 51°9.551 2°37.664 8.6361 3.465105 31.336091 -2.871232
2007-03-30 10:54:08 51°9.526 2°37.599 8.648 3.47981 31.469393 -2.871232
2007-03-30 10:55:08 51°9.518 2°37.554 8.6621 3.489337 31.550688 -2.871232
2007-03-30 10:56:08 51°9.522 2°37.521 8.6642 3.496897 31.618969 -2.871232
2007-03-30 10:57:08 51°9.532 2°37.507 8.6591 3.500418 31.649238 -2.871232
2007-03-30 10:58:08 51°9.546 2°37.511 8.648 3.498243 31.635873 -2.871232
2007-03-30 10:59:08 51°9.56 2°37.524 8.6473 3.496587 31.625163 -2.871232
2007-03-30 11:00:08 51°9.574 2°37.543 8.6446 3.496379 31.624776 -2.871232
2007-03-30 11:01:08 51°9.587 2°37.565 8.6561 3.496587 31.62601 -2.871232
2007-03-30 11:02:08 51°9.597 2°37.589 8.6562 3.497208 31.622935 -2.871232
2007-03-30 11:03:08 51°9.607 2°37.615 8.6578 3.496069 31.613191 -2.871232
2007-03-30 11:04:08 51°9.616 2°37.643 8.6595 3.495344 31.605067 -2.871232
2007-03-30 11:05:08 51°9.625 2°37.67 8.6541 3.494205 31.594477 -2.871232
2007-03-30 11:06:08 51°9.633 2°37.697 8.6507 3.492548 31.583762 -2.871232
2007-03-30 11:07:08 51°9.646 2°37.716 8.6514 3.49203 31.579409 -2.871232
2007-03-30 11:08:08 51°9.669 2°37.624 8.6548 3.490684 31.570119 -2.871232
2007-03-30 11:09:08 51°9.638 2°37.381 8.6347 3.480949 31.46987 -2.871232
2007-03-30 11:10:08 51°9.579 2°37.094 8.6149 3.465209 31.337131 -2.871232
2007-03-30 11:11:08 51°9.517 2°36.796 8.558 3.452679 31.224793 -2.871232
2007-03-30 11:12:08 51°9.456 2°36.495 8.5598 3.428035 31.020848 -2.871232
2007-03-30 11:13:09 51°9.395 2°36.187 8.6114 3.433419 31.064066 -2.871232
2007-03-30 11:14:08 51°9.336 2°35.889 8.6277 3.469144 31.383358 -2.871232
2007-03-30 11:15:09 51°9.275 2°35.579 8.644 3.490062 31.577411 -2.871232
2007-03-30 11:16:08 51°9.216 2°35.272 8.6766 3.504975 31.710266 -2.871232
2007-03-30 11:17:09 51°9.156 2°34.96 8.6998 3.522477 31.851193 -2.871232
2007-03-30 11:18:09 51°9.098 2°34.654 8.7433 3.534491 31.953927 -2.871232
2007-03-30 11:19:09 51°9.04 2°34.354 8.7694 3.566081 32.235182 -2.871232
2007-03-30 11:20:09 51°8.989 2°34.088 8.7842 3.596223 32.510366 -2.871232
2007-03-30 11:21:08 51°8.958 2°33.962 8.7959 3.602542 32.563446 -2.871232
2007-03-30 11:22:09 51°8.938 2°33.953 8.7921 3.60451 32.574534 -2.871232
2007-03-30 11:23:09 51°8.938 2°33.983 8.788 3.603371 32.568298 -2.871232
2007-03-30 11:24:09 51°8.939 2°34.016 8.7876 3.601713 32.553381 -2.871232
2007-03-30 11:25:09 51°8.943 2°34.049 8.7849 3.601506 32.553905 -2.871232
2007-03-30 11:26:09 51°8.947 2°34.081 8.7878 3.600677 32.549052 -2.871232
2007-03-30 11:27:09 51°8.952 2°34.113 8.8165 3.600677 32.545578 -2.871232
2007-03-30 11:28:08 51°8.956 2°34.144 8.8181 3.602335 32.543131 -2.871232
2007-03-30 11:29:09 51°8.962 2°34.175 8.8828 3.602852 32.540524 -2.871232
2007-03-30 11:30:09 51°8.968 2°34.205 8.8678 3.606477 32.534436 -2.871232
2007-03-30 11:31:09 51°8.974 2°34.236 8.8735 3.607306 32.53322 -2.871232
2007-03-30 11:32:09 51°8.981 2°34.265 8.7924 3.604717 32.541031 -2.871232
2007-03-30 11:33:09 51°8.987 2°34.295 8.7851 3.599849 32.534647 -2.871232
2007-03-30 11:34:09 51°8.993 2°34.324 8.7799 3.599124 32.534306 -2.871232
2007-03-30 11:35:09 51°8.998 2°34.353 8.7922 3.598295 32.526846 -2.871232
2007-03-30 11:36:09 51°9.004 2°34.384 8.8246 3.598605 32.50655 -2.871232
2007-03-30 11:37:09 51°8.995 2°34.438 8.7752 3.582136 32.344674 -2.871232
2007-03-30 11:38:09 51°8.988 2°34.486 8.7602 3.563284 32.186462 -2.871232
2007-03-30 11:39:09 51°8.944 2°34.528 8.7567 3.555309 32.118428 -2.871232
2007-03-30 11:40:09 51°8.818 2°34.556 8.7372 3.546712 32.033013 -2.871232
2007-03-30 11:41:09 51°8.664 2°34.558 8.7321 3.546298 32.046824 -2.871232
2007-03-30 11:42:09 51°8.521 2°34.561 8.731 3.547334 32.063218 -2.871232
2007-03-30 11:43:09 51°8.474 2°34.584 8.7464 3.550441 32.091849 -2.871232
2007-03-30 11:44:08 51°8.479 2°34.592 8.7448 3.555309 32.128722 -2.871232
2007-03-30 11:45:10 51°8.484 2°34.6 8.7455 3.555931 32.13582 -2.871232
2007-03-30 11:46:09 51°8.487 2°34.61 8.7485 3.554999 32.124744 -2.871232
2007-03-30 11:47:09 51°8.491 2°34.62 8.7522 3.553756 32.108836 -2.871232
2007-03-30 11:48:08 51°8.495 2°34.631 8.777 3.553445 32.103145 -2.871232
2007-03-30 11:49:07 51°8.497 2°34.643 8.8124 3.55562 32.115545 -2.871232
2007-03-30 11:50:08 51°8.498 2°34.657 8.775 3.560177 32.119274 -2.871232
2007-03-30 11:51:08 51°8.499 2°34.671 8.7664 3.553755 32.089983 -2.871232
2007-03-30 11:52:08 51°8.499 2°34.687 8.8139 3.556138 32.11217 -2.871232
2007-03-30 11:53:08 51°8.499 2°34.704 8.8437 3.560591 32.117434 -2.871232
2007-03-30 11:54:08 51°8.499 2°34.722 8.7796 3.560902 32.120548 -2.871232
2007-03-30 11:55:08 51°8.499 2°34.738 8.7695 3.554791 32.096092 -2.871232
2007-03-30 11:56:08 51°8.498 2°34.755 8.7707 3.55562 32.108688 -2.871232
2007-03-30 11:57:09 51°8.497 2°34.772 8.8151 3.562352 32.166804 -2.871232
2007-03-30 11:58:08 51°8.497 2°34.788 8.8111 3.566702 32.182979 -2.871232
2007-03-30 11:59:09 51°8.496 2°34.805 8.8502 3.571259 32.207216 -2.871232
2007-03-30 12:00:09 51°8.495 2°34.822 8.8713 3.573745 32.214109 -2.871232
2007-03-30 12:01:09 51°8.495 2°34.84 8.8648 3.576541 32.22411 -2.871232
2007-03-30 12:02:09 51°8.494 2°34.858 8.8605 3.575609 32.229354 -2.871232
2007-03-30 12:03:09 51°8.494 2°34.876 8.8357 3.576541 32.234402 -2.871232
2007-03-30 12:04:09 51°8.493 2°34.893 8.8641 3.575402 32.243588 -2.871232
2007-03-30 12:05:09 51°8.492 2°34.91 8.8781 3.577888 32.248748 -2.871232
2007-03-30 12:06:09 51°8.491 2°34.928 8.8784 3.579649 32.250077 -2.871232
2007-03-30 12:07:09 51°8.49 2°34.947 8.8788 3.578717 32.24589 -2.871232
2007-03-30 12:08:09 51°8.497 2°35.019 8.7893 3.577785 32.282083 -2.871232
2007-03-30 12:09:09 51°8.561 2°35.057 8.7783 3.57706 32.309252 -2.871232
2007-03-30 12:10:09 51°8.664 2°34.931 8.7641 3.573435 32.277168 -2.871232
2007-03-30 12:11:09 51°8.778 2°34.798 8.7314 3.558209 32.145823 -2.871232
2007-03-30 12:12:09 51°8.837 2°34.786 8.7363 3.554274 32.126903 -2.871232
2007-03-30 12:13:11 51°8.844 2°34.792 8.7305 3.557795 32.158836 -2.871232
2007-03-30 12:14:13 51°8.848 2°34.8 8.739 3.558313 32.168334 -2.871232
2007-03-30 12:15:12 51°8.853 2°34.807 8.739 3.558417 32.163359 -2.871232
2007-03-30 12:16:10 51°8.858 2°34.814 8.7374 3.558002 32.159198 -2.871232
2007-03-30 12:17:10 51°8.864 2°34.819 8.7384 3.558106 32.160238 -2.871232
2007-03-30 12:18:09 51°8.869 2°34.822 8.742 3.55852 32.16354 -2.871232
2007-03-30 12:19:09 51°8.876 2°34.824 8.756 3.559245 32.166526 -2.871232
2007-03-30 12:20:09 51°8.883 2°34.826 8.7483 3.560902 32.173716 -2.871232
2007-03-30 12:21:09 51°8.891 2°34.827 8.7493 3.56142 32.186649 -2.871232
2007-03-30 12:22:09 51°8.9 2°34.829 8.7495 3.561835 32.188231 -2.871232
2007-03-30 12:23:09 51°8.908 2°34.829 8.7452 3.561938 32.19099 -2.871232
2007-03-30 12:24:09 51°8.918 2°34.826 8.7487 3.561731 32.191489 -2.871232
2007-03-30 12:25:09 51°8.953 2°34.79 8.7449 3.561835 32.192529 -2.871232
2007-03-30 12:26:09 51°9.023 2°34.821 8.7448 3.563699 32.211254 -2.871232
2007-03-30 12:27:09 51°9.029 2°34.943 8.7455 3.561938 32.196149 -2.871232
2007-03-30 12:28:09 51°8.935 2°35.017 8.7428 3.561627 32.192169 -2.871232
2007-03-30 12:29:09 51°8.814 2°35.162 8.7397 3.558209 32.159561 -2.871232
2007-03-30 12:30:09 51°8.69 2°35.315 8.7729 3.556449 32.144455 -2.871232
2007-03-30 12:31:09 51°8.625 2°35.428 8.7788 3.573124 32.280078 -2.871232
2007-03-30 12:32:09 51°8.645 2°35.532 8.7764 3.580271 32.353571 -2.871232
2007-03-30 12:33:09 51°8.687 2°35.589 8.7799 3.582136 32.367978 -2.871232
2007-03-30 12:34:09 51°8.739 2°35.655 8.7744 3.581204 32.357752 -2.871232
2007-03-30 12:35:08 51°8.775 2°35.744 8.7719 3.575714 32.306939 -2.871232
2007-03-30 12:36:08 51°8.791 2°35.843 8.7797 3.57271 32.278503 -2.871232
2007-03-30 12:37:08 51°8.801 2°35.927 8.7869 3.578925 32.331418 -2.871232
2007-03-30 12:38:08 51°8.813 2°36.006 8.7881 3.582964 32.366799 -2.871232
2007-03-30 12:39:08 51°8.825 2°36.092 8.7846 3.584 32.378063 -2.871232
2007-03-30 12:40:08 51°8.822 2°36.182 8.7845 3.584415 32.383951 -2.871232
2007-03-30 12:41:08 51°8.819 2°36.274 8.7834 3.585968 32.400418 -2.871232
2007-03-30 12:42:08 51°8.815 2°36.366 8.7864 3.586797 32.41047 -2.871232
2007-03-30 12:43:09 51°8.807 2°36.459 8.7867 3.587936 32.419319 -2.871232
2007-03-30 12:44:08 51°8.79 2°36.545 8.7904 3.58804 32.419494 -2.871232
2007-03-30 12:45:08 51°8.771 2°36.63 8.7905 3.587419 32.411523 -2.871232
2007-03-30 12:46:08 51°8.751 2°36.714 8.7892 3.586072 32.397137 -2.871232
2007-03-30 12:47:08 51°8.733 2°36.798 8.785 3.584207 32.381007 -2.871232
2007-03-30 12:48:08 51°8.719 2°36.884 8.7758 3.582136 32.36366 -2.871232
2007-03-30 12:49:09 51°8.706 2°36.972 8.773 3.574367 32.296005 -2.871232
2007-03-30 12:50:09 51°8.701 2°37.059 8.7822 3.577164 32.320638 -2.871232
2007-03-30 12:51:08 51°8.704 2°37.144 8.777 3.584518 32.387584 -2.871232
2007-03-30 12:52:08 51°8.708 2°37.231 8.7762 3.580997 32.358262 -2.871232
2007-03-30 12:53:08 51°8.719 2°37.318 8.7715 3.581618 32.367095 -2.871232
2007-03-30 12:54:08 51°8.732 2°37.406 8.7611 3.580686 32.362914 -2.871232
2007-03-30 12:55:08 51°8.747 2°37.493 8.7605 3.576853 32.331323 -2.871232
2007-03-30 12:56:08 51°8.763 2°37.578 8.7614 3.579443 32.358202 -2.871232
2007-03-30 12:57:09 51°8.782 2°37.664 8.7651 3.577578 32.337744 -2.871232
2007-03-30 12:58:08 51°8.8 2°37.747 8.762 3.572399 32.283137 -2.871232
2007-03-30 12:59:08 51°8.818 2°37.831 8.7647 3.579754 32.357868 -2.871232
2007-03-30 13:00:08 51°8.838 2°37.913 8.7652 3.578821 32.348503 -2.871232
2007-03-30 13:01:08 51°8.858 2°37.994 8.7665 3.578407 32.342614 -2.871232
2007-03-30 13:02:08 51°8.879 2°38.074 8.7672 3.577993 32.337589 -2.871232
2007-03-30 13:03:08 51°8.901 2°38.154 8.7661 3.577371 32.330484 -2.871232
2007-03-30 13:04:08 51°8.925 2°38.232 8.7639 3.576646 32.323201 -2.871232
2007-03-30 13:05:08 51°8.948 2°38.31 8.7628 3.574367 32.303764 -2.871232
2007-03-30 13:06:08 51°8.971 2°38.388 8.7626 3.570846 32.269257 -2.871232
2007-03-30 13:07:08 51°8.994 2°38.465 8.7562 3.565667 32.218114 -2.871232
2007-03-30 13:08:08 51°9.019 2°38.54 8.7459 3.559556 32.163633 -2.871232
2007-03-30 13:09:09 51°9.031 2°38.622 8.7348 3.555309 32.133872 -2.871232
2007-03-30 13:10:08 51°9.018 2°38.7 8.7387 3.550648 32.092214 -2.871232
2007-03-30 13:11:08 51°8.981 2°38.75 8.7465 3.550545 32.088603 -2.871232
2007-03-30 13:12:08 51°8.934 2°38.743 8.7646 3.556034 32.133427 -2.871232
2007-03-30 13:13:08 51°8.896 2°38.728 8.775 3.572399 32.278829 -2.871232
2007-03-30 13:14:08 51°8.866 2°38.72 8.7812 3.580582 32.355828 -2.871232
2007-03-30 13:15:08 51°8.841 2°38.718 8.7798 3.582136 32.367978 -2.871232
2007-03-30 13:16:09 51°8.822 2°38.716 8.7718 3.580686 32.356005 -2.871232
2007-03-30 13:17:09 51°8.799 2°38.739 8.7663 3.578096 32.33604 -2.871232
2007-03-30 13:18:09 51°8.809 2°38.82 8.7628 3.577061 32.330815 -2.871232
2007-03-30 13:19:09 51°8.906 2°38.901 8.7677 3.573539 32.293718 -2.871232
2007-03-30 13:20:09 51°9.084 2°39.042 8.7625 3.551269 32.061623 -2.871232
2007-03-30 13:21:09 51°9.28 2°39.199 8.7269 3.51647 31.73909 -2.871232
2007-03-30 13:22:09 51°9.479 2°39.358 8.7327 3.519266 31.787493 -2.871232
2007-03-30 13:23:09 51°9.678 2°39.52 8.7408 3.486954 31.441759 -2.871232
2007-03-30 13:24:09 51°9.875 2°39.687 8.6952 3.483744 31.432285 -2.871232
2007-03-30 13:25:09 51°10.071 2°39.861 8.6568 3.465311 31.282844 -2.871232
2007-03-30 13:26:09 51°10.261 2°40.055 8.6425 3.461791 31.275179 -2.871232
2007-03-30 13:27:09 51°10.433 2°40.289 8.646 3.459616 31.264257 -2.871232
2007-03-30 13:28:09 51°10.594 2°40.546 8.6601 3.463551 31.291992 -2.871232
2007-03-30 13:29:09 51°10.72 2°40.848 8.6385 3.458374 31.239246 -2.871232
2007-03-30 13:30:09 51°10.834 2°41.161 8.6347 3.452678 31.195523 -2.871232
2007-03-30 13:31:09 51°10.95 2°41.472 8.6346 3.4387 31.097052 -2.871232
2007-03-30 13:32:09 51°11.065 2°41.787 8.6428 3.441391 31.080724 -2.871232
2007-03-30 13:33:09 51°11.182 2°42.1 8.6356 3.438078 31.053344 -2.871232
2007-03-30 13:34:09 51°11.299 2°42.41 8.567 3.44398 31.131677 -2.871232
2007-03-30 13:35:09 51°11.391 2°42.735 8.5385 3.435386 31.093828 -2.871232
2007-03-30 13:36:09 51°11.448 2°43.082 8.5657 3.428138 31.034384 -2.871232
2007-03-30 13:37:09 51°11.5 2°43.432 8.5479 3.426171 30.997145 -2.871232
2007-03-30 13:38:09 51°11.547 2°43.781 8.5385 3.417784 30.932912 -2.871232
2007-03-30 13:39:09 51°11.596 2°44.132 8.5476 3.413124 30.888629 -2.871232
2007-03-30 13:40:09 51°11.646 2°44.481 8.5406 3.407947 30.837496 -2.871232
2007-03-30 13:41:09 51°11.696 2°44.83 8.5968 3.405773 30.805747 -2.871232
2007-03-30 13:42:09 51°11.748 2°45.179 8.6011 3.400077 30.677796 -2.871232
2007-03-30 13:43:09 51°11.799 2°45.527 8.5817 3.377196 30.480807 -2.871232
2007-03-30 13:44:09 51°11.85 2°45.874 8.6429 3.372226 30.433535 -2.871232
2007-03-30 13:45:09 51°11.903 2°46.219 8.6458 3.363736 30.308798 -2.871232
2007-03-30 13:46:09 51°11.954 2°46.566 8.9618 0.067253 0.464466 -2.871232
2007-03-30 13:47:09 51°12.011 2°46.911 9.0553 0.045847 0.312074 -2.871232
2007-03-30 13:48:09 51°12.084 2°47.25 9.1575 0.039672 0.268623 -2.871232
2007-03-30 13:49:09 51°12.156 2°47.588 9.2552 0.036584 0.246928 -2.871232
2007-03-30 13:50:09 51°12.233 2°47.919 9.4185 0.034629 0.233166 -2.871232
2007-03-30 13:51:09 51°12.332 2°48.238 9.551 0.033085 0.222285 -2.871232
2007-03-30 13:52:09 51°12.432 2°48.555 9.6622 0.031953 0.214267 -2.871232
2007-03-30 13:53:09 51°12.536 2°48.868 9.7912 0.031027 0.207677 -2.871232
2007-03-30 13:54:09 51°12.639 2°49.18 9.9239 0.030101 0.201105 -2.871232
2007-03-30 13:55:09 51°12.743 2°49.491 10.0241 0.02938 0.195961 -2.871232
2007-03-30 13:56:09 51°12.848 2°49.803 10.147 0.02866 0.190819 -2.871232
2007-03-30 13:57:09 51°12.95 2°50.118 10.2502 0.028145 0.187107 -2.871232
2007-03-30 13:58:09 51°13.054 2°50.434 10.373 0.027528 0.182698 -2.871232
2007-03-30 13:59:09 51°13.166 2°50.74 10.4608 0.027116 0.179699 -2.871232
2007-03-30 14:00:09 51°13.278 2°51.045 10.5597 0.026704 0.176706 -2.871232
2007-03-30 14:01:09 51°13.39 2°51.348 10.6802 0.026293 0.173722 -2.871232
2007-03-30 14:02:09 51°13.502 2°51.65 10.785 0.025984 0.171441 -2.871232
2007-03-30 14:03:09 51°13.608 2°51.944 10.8853 0.025572 0.168479 -2.871232
2007-03-30 14:04:09 51°13.709 2°52.218 10.9874 0.025264 0.166222 -2.871232
2007-03-30 14:05:09 51°13.808 2°52.49 11.0869 0.024955 0.163967 -2.871232
2007-03-30 14:06:09 51°13.907 2°52.762 11.1897 0.024646 0.161718 -2.871232
2007-03-30 14:07:09 51°14.007 2°53.034 11.2785 0.024337 0.159477 -2.871232
2007-03-30 14:08:09 51°14.107 2°53.305 11.3722 0.024131 0.157932 -2.871232
2007-03-30 14:09:09 51°14.206 2°53.577 11.4657 0.023823 0.155707 -2.871232
2007-03-30 14:10:09 51°14.301 2°53.849 11.5741 0.023514 0.15348 -2.871232
2007-03-30 14:11:09 51°14.376 2°54.137 11.6032 0.023308 0.15194 -2.871232
2007-03-30 14:12:09 51°14.462 2°54.433 11.5452 0.023102 0.150425 -2.871232
2007-03-30 14:13:09 51°14.444 2°54.751 11.6534 0.022896 0.148886 -2.871232
2007-03-30 14:14:09 51°14.361 2°55.051 11.7528 0.022691 0.147397 -2.871232
2007-03-30 14:15:09 51°14.237 2°55.309 11.7985 0.022588 0.146576 -2.871232
2007-03-30 14:16:09 51°14.11 2°55.43 11.9055 0.022382 0.14509 -2.871232
2007-03-30 14:17:09 51°14.031 2°55.481 12.017 0.022176 0.143594 -2.871232
2007-03-30 14:18:09 51°13.975 2°55.521 12.1132 0.02197 0.142095 -2.871232
2007-03-30 14:19:09 51°13.906 2°55.572 12.1976 0.021867 0.141275 -2.871232
2007-03-30 14:20:09 51°13.796 2°55.666 12.2462 0.741556 4.72622 -2.871232
2007-03-30 14:21:09 51°13.697 2°55.813 12.3271 0.121796 0.694151 -2.871232
2007-03-30 14:22:09 51°13.644 2°55.935 12.4331 0.111093 0.632933 -2.871232
2007-03-30 14:23:09 51°13.617 2°56.024 12.5203 0.097199 0.553457 -2.871232
2007-03-30 14:24:09 51°13.604 2°56.084 12.5733 0.090613 0.516084 -2.871232
2007-03-30 14:25:09 51°13.601 2°56.099 12.6572 0.085261 0.484543 -2.871232